createdAt,value
2019-06-15T00:02:22.046Z,71.73
2019-06-15T00:04:50.788Z,71.73
2019-06-15T00:07:19.446Z,71.79
2019-06-15T00:09:48.052Z,71.89
2019-06-15T00:12:16.774Z,71.92
2019-06-15T00:14:45.458Z,71.96
2019-06-15T00:17:14.087Z,71.93
2019-06-15T00:19:47.152Z,71.92
2019-06-15T00:22:15.903Z,71.94
2019-06-15T00:24:44.600Z,71.98
2019-06-15T00:27:14.798Z,72.02
2019-06-15T00:29:44.272Z,72.01
2019-06-15T00:32:18.036Z,72.08
2019-06-15T00:35:01.872Z,72.13
2019-06-15T00:37:31.049Z,72.11
2019-06-15T00:40:01.264Z,72.08
2019-06-15T00:42:29.986Z,72.11
2019-06-15T00:44:59.456Z,72.12
2019-06-15T00:47:28.167Z,72.12
2019-06-15T00:49:56.801Z,72.16
2019-06-15T00:52:25.498Z,72.11
2019-06-15T00:54:54.129Z,72.13
2019-06-15T00:57:24.386Z,72.16
2019-06-15T00:59:53.070Z,72.19
2019-06-15T01:02:21.702Z,72.24
2019-06-15T01:04:51.057Z,72.27
2019-06-15T01:07:21.880Z,72.33
2019-06-15T01:09:50.444Z,72.35
2019-06-15T01:12:19.250Z,72.43
2019-06-15T01:14:50.272Z,72.45
2019-06-15T01:17:18.916Z,72.48
2019-06-15T01:19:48.603Z,72.50
2019-06-15T01:22:18.478Z,72.53
2019-06-15T01:24:47.142Z,72.52
2019-06-15T01:27:15.778Z,72.50
2019-06-15T01:29:44.431Z,72.51
2019-06-15T01:32:13.123Z,72.46
2019-06-15T01:34:41.826Z,72.47
2019-06-15T01:37:10.444Z,72.50
2019-06-15T01:39:41.237Z,72.47
2019-06-15T01:42:09.889Z,72.47
2019-06-15T01:44:38.531Z,72.59
2019-06-15T01:47:07.106Z,72.72
2019-06-15T01:49:35.766Z,72.84
2019-06-15T01:52:04.563Z,72.96
2019-06-15T01:54:33.204Z,73.00
2019-06-15T01:57:03.748Z,73.14
2019-06-15T01:59:32.381Z,73.24
2019-06-15T02:02:01.015Z,73.28
2019-06-15T02:04:30.114Z,73.34
2019-06-15T02:06:58.814Z,73.28
2019-06-15T02:09:27.976Z,73.34
2019-06-15T02:11:57.470Z,73.34
2019-06-15T02:14:28.925Z,73.42
2019-06-15T02:16:57.610Z,73.41
2019-06-15T02:19:32.807Z,73.38
2019-06-15T02:22:03.951Z,73.39
2019-06-15T02:24:32.623Z,73.39
2019-06-15T02:27:01.238Z,73.26
2019-06-15T02:29:29.818Z,73.25
2019-06-15T02:31:59.340Z,73.24
2019-06-15T02:34:30.909Z,73.24
2019-06-15T02:36:59.563Z,73.33
2019-06-15T02:39:28.639Z,73.50
2019-06-15T02:41:57.279Z,73.55
2019-06-15T02:44:25.955Z,73.65
2019-06-15T02:46:56.186Z,73.78
2019-06-15T02:49:30.484Z,73.90
2019-06-15T02:52:04.462Z,74.00
2019-06-15T02:54:44.959Z,74.09
2019-06-15T02:57:13.641Z,74.17
2019-06-15T02:59:44.917Z,74.17
2019-06-15T03:02:20.468Z,74.12
2019-06-15T03:04:52.618Z,73.99
2019-06-15T03:07:21.480Z,73.86
2019-06-15T03:09:52.763Z,73.95
2019-06-15T03:12:24.806Z,73.94
2019-06-15T03:15:04.337Z,73.96
2019-06-15T03:17:35.706Z,73.94
2019-06-15T03:20:07.238Z,73.80
2019-06-15T03:22:40.148Z,73.76
2019-06-15T03:25:12.413Z,73.87
2019-06-15T03:27:46.059Z,73.77
2019-06-15T03:30:15.551Z,73.69
2019-06-15T03:35:44.616Z,73.84
2019-06-15T03:38:15.375Z,73.85
2019-06-15T03:40:43.980Z,73.87
2019-06-15T03:43:16.625Z,73.78
2019-06-15T03:45:45.286Z,73.80
2019-06-15T03:48:13.936Z,73.60
2019-06-15T03:50:42.948Z,73.55
2019-06-15T03:53:19.786Z,73.55
2019-06-15T03:55:50.355Z,73.57
2019-06-15T03:58:20.482Z,73.53
2019-06-15T04:00:53.067Z,73.48
2019-06-15T04:03:21.723Z,73.35
2019-06-15T04:05:50.259Z,73.24
2019-06-15T04:08:18.903Z,73.35
2019-06-15T04:10:48.239Z,73.49
2019-06-15T04:13:16.956Z,73.52
2019-06-15T04:15:47.116Z,73.61
2019-06-15T04:18:15.779Z,73.68
2019-06-15T04:20:44.382Z,73.86
2019-06-15T04:23:14.583Z,74.00
2019-06-15T04:25:47.833Z,74.12
2019-06-15T04:28:18.012Z,74.21
2019-06-15T04:30:47.221Z,74.29
2019-06-15T04:33:15.897Z,74.40
2019-06-15T04:35:44.522Z,74.49
2019-06-15T04:38:13.482Z,74.62
2019-06-15T04:40:44.968Z,74.89
2019-06-15T04:43:13.608Z,75.07
2019-06-15T04:45:42.269Z,75.19
2019-06-15T04:48:12.566Z,75.31
2019-06-15T04:50:41.213Z,75.41
2019-06-15T04:53:14.759Z,75.53
2019-06-15T04:55:45.041Z,75.69
2019-06-15T04:58:13.792Z,75.93
2019-06-15T05:00:44.295Z,76.19
2019-06-15T05:03:13.228Z,76.32
2019-06-15T05:05:43.829Z,76.52
2019-06-15T05:08:16.763Z,76.82
2019-06-15T05:10:45.894Z,77.05
2019-06-15T05:13:14.488Z,77.17
2019-06-15T05:15:43.113Z,77.38
2019-06-15T05:18:11.736Z,77.54
2019-06-15T05:20:40.390Z,77.86
2019-06-15T05:23:08.958Z,78.15
2019-06-15T05:25:39.221Z,78.36
2019-06-15T05:28:10.420Z,78.41
2019-06-15T05:30:40.916Z,78.43
2019-06-15T05:33:09.584Z,78.22
2019-06-15T05:35:38.144Z,77.82
2019-06-15T05:38:06.754Z,77.61
2019-06-15T05:40:35.345Z,77.33
2019-06-15T05:43:03.947Z,77.16
2019-06-15T05:45:32.578Z,77.01
2019-06-15T05:48:01.231Z,76.90
2019-06-15T05:50:33.052Z,76.76
2019-06-15T05:53:01.778Z,76.74
2019-06-15T05:55:30.388Z,76.69
2019-06-15T05:57:59.588Z,76.51
2019-06-15T06:00:28.323Z,76.36
2019-06-15T06:02:59.824Z,76.29
2019-06-15T06:05:28.308Z,76.03
2019-06-15T06:07:59.724Z,75.80
2019-06-15T06:10:28.346Z,75.67
2019-06-15T06:12:57.032Z,75.50
2019-06-15T06:15:26.899Z,75.11
2019-06-15T06:17:57.542Z,74.78
2019-06-15T06:20:27.214Z,74.48
2019-06-15T06:22:55.753Z,74.44
2019-06-15T06:25:24.314Z,74.13
2019-06-15T06:27:53.426Z,74.08
2019-06-15T06:30:25.038Z,74.11
2019-06-15T06:32:53.881Z,73.89
2019-06-15T06:35:22.485Z,73.54
2019-06-15T06:37:51.408Z,73.33
2019-06-15T06:40:21.555Z,73.24
2019-06-15T06:42:50.127Z,73.07
2019-06-15T06:45:18.782Z,72.83
2019-06-15T06:47:47.447Z,72.75
2019-06-15T06:50:17.797Z,72.62
2019-06-15T06:52:51.264Z,72.56
2019-06-15T06:55:19.854Z,72.45
2019-06-15T06:57:52.614Z,72.47
2019-06-15T07:00:19.085Z,72.47
2019-06-15T07:02:50.564Z,72.26
2019-06-15T07:05:19.213Z,71.83
2019-06-15T07:07:47.883Z,71.52
2019-06-15T07:10:16.458Z,71.12
2019-06-15T07:12:46.165Z,70.83
2019-06-15T07:15:15.057Z,70.67
2019-06-15T07:17:44.430Z,70.49
2019-06-15T07:20:13.982Z,69.97
2019-06-15T07:22:42.803Z,69.85
2019-06-15T07:25:13.120Z,69.67
2019-06-15T07:27:41.849Z,69.34
2019-06-15T07:30:12.906Z,69.05
2019-06-15T07:32:41.698Z,69.05
2019-06-15T07:35:10.623Z,68.74
2019-06-15T07:37:40.661Z,68.48
2019-06-15T07:40:09.869Z,68.19
2019-06-15T07:42:47.415Z,67.84
2019-06-15T07:45:16.424Z,67.59
2019-06-15T07:47:45.120Z,67.57
2019-06-15T07:50:14.621Z,67.40
2019-06-15T07:52:44.654Z,67.42
2019-06-15T07:55:13.398Z,67.24
2019-06-15T07:57:43.193Z,67.42
2019-06-15T08:09:15.362Z,67.20
2019-06-15T08:11:57.736Z,67.16
2019-06-15T08:17:29.840Z,66.98
2019-06-15T08:19:58.711Z,66.88
2019-06-15T08:22:29.463Z,66.61
2019-06-15T08:24:59.897Z,65.88
2019-06-15T08:27:33.136Z,65.88
2019-06-15T08:30:04.245Z,65.45
2019-06-15T08:32:32.984Z,64.74
2019-06-15T08:35:03.479Z,64.42
2019-06-15T08:37:32.111Z,64.08
2019-06-15T08:40:02.910Z,63.92
2019-06-15T08:42:45.131Z,64.00
2019-06-15T08:45:14.172Z,64.11
2019-06-15T08:47:42.930Z,64.11
2019-06-15T08:50:15.757Z,63.81
2019-06-15T08:52:51.532Z,63.28
2019-06-15T08:55:23.598Z,62.70
2019-06-15T08:57:54.837Z,62.07
2019-06-15T09:00:25.848Z,61.78
2019-06-15T09:02:55.974Z,61.67
2019-06-15T09:05:25.765Z,61.58
2019-06-15T09:07:54.597Z,61.12
2019-06-15T09:10:23.345Z,60.88
2019-06-15T09:12:56.850Z,60.59
2019-06-15T09:15:40.960Z,60.24
2019-06-15T09:18:10.996Z,60.04
2019-06-15T09:20:42.194Z,59.62
2019-06-15T09:23:10.974Z,59.75
2019-06-15T09:25:41.520Z,59.48
2019-06-15T09:28:14.552Z,59.25
2019-06-15T09:30:45.377Z,59.14
2019-06-15T09:33:14.143Z,59.12
2019-06-15T09:35:52.249Z,59.01
2019-06-15T09:38:22.295Z,58.93
2019-06-15T09:40:53.072Z,59.13
2019-06-15T09:43:22.492Z,59.36
2019-06-15T09:45:51.227Z,59.49
2019-06-15T09:48:20.842Z,59.43
2019-06-15T09:50:51.658Z,59.66
2019-06-15T09:53:20.385Z,59.63
2019-06-15T09:55:49.620Z,59.74
2019-06-15T09:58:20.316Z,59.60
2019-06-15T10:03:38.404Z,59.55
2019-06-15T10:06:11.548Z,59.62
2019-06-15T10:08:38.840Z,59.57
2019-06-15T10:11:07.584Z,59.23
2019-06-15T10:13:36.477Z,58.89
2019-06-15T10:16:06.015Z,58.80
2019-06-15T10:18:38.969Z,58.66
2019-06-15T10:21:09.358Z,58.53
2019-06-15T10:23:41.154Z,58.47
2019-06-15T10:26:10.034Z,58.34
2019-06-15T10:28:41.191Z,58.07
2019-06-15T10:31:10.017Z,57.98
2019-06-15T10:33:41.449Z,57.79
2019-06-15T10:36:15.413Z,57.87
2019-06-15T10:38:44.284Z,58.18
2019-06-15T10:41:19.306Z,58.23
2019-06-15T10:43:48.082Z,58.32
2019-06-15T10:46:17.425Z,58.48
2019-06-15T10:48:48.391Z,58.50
2019-06-15T10:51:17.304Z,58.48
2019-06-15T10:53:45.925Z,58.48
2019-06-15T10:56:15.089Z,58.43
2019-06-15T10:58:43.964Z,58.46
2019-06-15T11:01:25.299Z,58.47
2019-06-15T11:03:54.109Z,58.41
2019-06-15T11:06:22.841Z,58.23
2019-06-15T11:08:54.905Z,58.16
2019-06-15T11:11:24.216Z,58.23
2019-06-15T11:13:53.080Z,58.09
2019-06-15T11:16:25.975Z,58.11
2019-06-15T11:18:55.717Z,57.97
2019-06-15T11:21:26.959Z,57.80
2019-06-15T11:23:58.712Z,57.72
2019-06-15T11:26:29.023Z,57.63
2019-06-15T11:28:58.780Z,57.56
2019-06-15T11:31:30.703Z,57.51
2019-06-15T11:33:59.448Z,57.57
2019-06-15T11:36:28.162Z,57.55
2019-06-15T11:38:57.100Z,57.51
2019-06-15T11:41:28.976Z,57.57
2019-06-15T11:43:59.340Z,57.31
2019-06-15T11:46:29.317Z,57.09
2019-06-15T11:48:59.848Z,57.26
2019-06-15T11:51:30.047Z,57.37
2019-06-15T11:53:59.292Z,57.26
2019-06-15T11:56:28.028Z,57.18
2019-06-15T11:58:56.906Z,57.10
2019-06-15T12:01:26.208Z,57.15
2019-06-15T12:03:57.668Z,57.15
2019-06-15T12:06:31.604Z,57.23
2019-06-15T12:09:00.394Z,57.24
2019-06-15T12:11:29.494Z,57.24
2019-06-15T12:13:58.570Z,57.29
2019-06-15T12:16:32.028Z,57.29
2019-06-15T12:19:01.254Z,57.29
2019-06-15T12:21:30.106Z,57.16
2019-06-15T12:24:01.489Z,57.20
2019-06-15T12:26:36.360Z,57.29
2019-06-15T12:29:07.921Z,57.35
2019-06-15T12:31:38.723Z,57.43
2019-06-15T12:34:08.715Z,57.59
2019-06-15T12:36:37.610Z,57.33
2019-06-15T12:39:19.248Z,57.23
2019-06-15T12:41:50.846Z,57.29
2019-06-15T12:44:19.670Z,57.59
2019-06-15T12:46:52.348Z,57.60
2019-06-15T12:49:23.508Z,57.54
2019-06-15T12:51:53.565Z,57.63
2019-06-15T12:54:22.480Z,57.69
2019-06-15T12:56:51.300Z,57.51
2019-06-15T12:59:26.833Z,57.21
2019-06-15T13:01:57.386Z,57.06
2019-06-15T13:04:26.118Z,56.60
2019-06-15T13:06:56.366Z,56.57
2019-06-15T13:09:26.132Z,56.16
2019-06-15T13:11:59.832Z,56.27
2019-06-15T13:14:31.675Z,56.22
2019-06-15T13:17:03.144Z,56.23
2019-06-15T13:19:31.929Z,56.36
2019-06-15T13:22:06.213Z,56.49
2019-06-15T13:24:33.387Z,56.50
2019-06-15T13:27:04.941Z,56.69
2019-06-15T13:29:34.185Z,56.60
2019-06-15T13:32:03.061Z,56.76
2019-06-15T13:34:32.406Z,56.56
2019-06-15T13:37:03.903Z,56.01
2019-06-15T13:39:32.829Z,55.83
2019-06-15T13:42:04.281Z,55.64
2019-06-15T13:44:32.938Z,55.22
2019-06-15T13:47:01.587Z,55.26
2019-06-15T13:49:30.861Z,55.28
2019-06-15T13:51:59.516Z,55.34
2019-06-15T13:54:28.338Z,55.38
2019-06-15T13:56:56.978Z,55.25
2019-06-15T13:59:35.197Z,55.32
2019-06-15T14:02:03.843Z,55.45
2019-06-15T14:04:36.884Z,55.50
2019-06-15T14:07:09.202Z,55.38
2019-06-15T14:09:38.625Z,55.47
2019-06-15T14:12:08.720Z,55.41
2019-06-15T14:14:41.754Z,55.30
2019-06-15T14:17:11.805Z,55.43
2019-06-15T14:19:40.527Z,55.55
2019-06-15T14:22:11.768Z,55.62
2019-06-15T14:24:40.376Z,55.63
2019-06-15T14:27:15.161Z,55.61
2019-06-15T14:29:46.528Z,55.57
2019-06-15T14:32:15.254Z,55.55
2019-06-15T14:34:48.967Z,55.68
2019-06-15T14:37:21.513Z,55.60
2019-06-15T14:39:50.093Z,55.50
2019-06-15T14:42:20.563Z,55.62
2019-06-15T14:44:49.325Z,55.67
2019-06-15T14:47:19.271Z,55.72
2019-06-15T14:49:48.641Z,55.67
2019-06-15T14:52:19.368Z,55.65
2019-06-15T14:54:49.445Z,55.63
2019-06-15T14:57:18.081Z,55.49
2019-06-15T14:59:59.412Z,55.37
2019-06-15T15:02:18.831Z,55.31
2019-06-15T15:04:47.597Z,55.29
2019-06-15T15:07:19.396Z,55.15
2019-06-15T15:09:50.088Z,55.08
2019-06-15T15:12:18.935Z,55.19
2019-06-15T15:14:48.011Z,55.33
2019-06-15T15:17:17.594Z,55.61
2019-06-15T15:19:47.883Z,55.81
2019-06-15T15:22:18.374Z,55.87
2019-06-15T15:24:49.381Z,55.93
2019-06-15T15:27:20.901Z,55.95
2019-06-15T15:29:51.142Z,56.12
2019-06-15T15:32:27.369Z,56.09
2019-06-15T15:34:52.100Z,56.19
2019-06-15T15:37:20.744Z,56.21
2019-06-15T15:39:50.215Z,56.16
2019-06-15T15:42:20.943Z,56.15
2019-06-15T15:44:53.236Z,56.17
2019-06-15T15:47:23.089Z,56.21
2019-06-15T15:49:51.765Z,56.22
2019-06-15T15:52:20.511Z,56.32
2019-06-15T15:54:49.271Z,56.24
2019-06-15T15:57:19.465Z,56.23
2019-06-15T15:59:49.461Z,56.25
2019-06-15T16:02:18.106Z,56.27
2019-06-15T16:04:46.993Z,56.28
2019-06-15T16:07:16.866Z,56.34
2019-06-15T16:09:50.297Z,56.30
2019-06-15T16:12:28.553Z,56.27
2019-06-15T16:15:00.044Z,56.16
2019-06-15T16:17:32.330Z,56.15
2019-06-15T16:20:03.501Z,56.21
2019-06-15T16:22:32.257Z,56.30
2019-06-15T16:25:00.922Z,56.16
2019-06-15T16:27:29.533Z,56.06
2019-06-15T16:30:06.513Z,56.08
2019-06-15T16:32:37.402Z,56.10
2019-06-15T16:35:08.197Z,56.15
2019-06-15T16:37:38.797Z,56.12
2019-06-15T16:40:08.893Z,56.31
2019-06-15T16:42:39.930Z,56.39
2019-06-15T16:45:12.858Z,56.33
2019-06-15T16:47:43.096Z,56.52
2019-06-15T16:50:16.056Z,56.63
2019-06-15T16:52:43.773Z,56.71
2019-06-15T16:55:36.869Z,56.85
2019-06-15T16:58:07.537Z,56.97
2019-06-15T17:00:36.354Z,57.03
2019-06-15T17:03:19.807Z,57.06
2019-06-15T17:05:37.117Z,57.04
2019-06-15T17:08:06.936Z,57.36
2019-06-15T17:10:40.507Z,57.44
2019-06-15T17:13:17.064Z,57.57
2019-06-15T17:15:46.858Z,57.49
2019-06-15T17:18:15.746Z,57.29
2019-06-15T17:20:58.927Z,57.22
2019-06-15T17:23:27.902Z,57.26
2019-06-15T17:25:58.563Z,57.36
2019-06-15T17:28:27.428Z,57.39
2019-06-15T17:30:59.303Z,57.47
2019-06-15T17:33:37.576Z,57.52
2019-06-15T17:36:03.858Z,57.44
2019-06-15T17:38:36.970Z,57.53
2019-06-15T17:41:08.651Z,57.63
2019-06-15T17:43:37.223Z,57.71
2019-06-15T17:46:07.531Z,57.78
2019-06-15T17:48:39.303Z,57.85
2019-06-15T17:51:09.555Z,58.03
2019-06-15T17:53:40.887Z,58.10
2019-06-15T17:56:11.083Z,58.19
2019-06-15T17:58:42.781Z,58.26
2019-06-15T18:01:17.039Z,58.33
2019-06-15T18:03:53.948Z,58.30
2019-06-15T18:06:17.459Z,58.41
2019-06-15T18:08:46.500Z,58.52
2019-06-15T18:11:16.579Z,58.72
2019-06-15T18:13:47.300Z,58.78
2019-06-15T18:16:18.013Z,58.71
2019-06-15T18:18:47.371Z,58.76
2019-06-15T18:21:20.056Z,58.89
2019-06-15T18:23:48.822Z,58.93
2019-06-15T18:26:19.518Z,58.76
2019-06-15T18:28:49.123Z,58.75
2019-06-15T18:31:28.551Z,58.64
2019-06-15T18:34:06.449Z,58.72
2019-06-15T18:36:31.176Z,58.79
2019-06-15T18:39:05.627Z,58.81
2019-06-15T18:41:37.172Z,59.01
2019-06-15T18:44:07.880Z,59.09
2019-06-15T18:46:36.889Z,59.23
2019-06-15T18:49:08.567Z,59.39
2019-06-15T18:51:39.287Z,59.53
2019-06-15T18:54:12.467Z,59.59
2019-06-15T18:56:47.327Z,59.62
2019-06-15T18:59:19.000Z,59.70
2019-06-15T19:01:47.645Z,59.76
2019-06-15T19:04:26.955Z,59.74
2019-06-15T19:06:56.854Z,59.77
2019-06-15T19:09:27.147Z,59.72
2019-06-15T19:11:57.706Z,59.92
2019-06-15T19:14:27.103Z,59.97
2019-06-15T19:16:56.794Z,60.04
2019-06-15T19:19:26.857Z,60.08
2019-06-15T19:21:57.151Z,60.16
2019-06-15T19:24:29.101Z,60.38
2019-06-15T19:27:00.522Z,60.55
2019-06-15T19:29:31.896Z,60.61
2019-06-15T19:32:03.500Z,60.63
2019-06-15T19:34:44.269Z,60.79
2019-06-15T19:37:12.617Z,60.60
2019-06-15T19:39:46.322Z,60.71
2019-06-15T19:42:17.506Z,60.78
2019-06-15T19:44:47.495Z,60.80
2019-06-15T19:50:50.870Z,61.02
2019-06-15T19:53:21.027Z,61.09
2019-06-15T19:55:49.685Z,61.03
2019-06-15T19:58:29.526Z,60.96
2019-06-15T20:01:09.271Z,61.19
2019-06-15T20:03:49.730Z,61.36
2019-06-15T20:06:21.058Z,61.38
2019-06-15T20:11:42.245Z,61.37
2019-06-15T20:14:14.815Z,61.51
2019-06-15T20:19:40.643Z,61.76
2019-06-15T20:22:24.226Z,61.85
2019-06-15T20:24:58.829Z,61.86
2019-06-15T20:27:50.019Z,61.87
2019-06-15T20:30:22.054Z,61.98
2019-06-15T20:33:09.383Z,62.09
2019-06-15T20:35:39.754Z,62.18
2019-06-15T20:38:11.463Z,62.30
2019-06-15T20:40:52.691Z,62.47
2019-06-15T20:43:21.467Z,62.57
2019-06-15T20:45:53.108Z,62.67
2019-06-15T20:48:23.411Z,62.72
2019-06-15T20:51:10.061Z,62.89
2019-06-15T20:53:40.645Z,62.96
2019-06-15T20:56:13.687Z,63.01
2019-06-15T20:58:43.335Z,63.04
2019-06-15T21:01:18.409Z,63.13
2019-06-15T21:03:49.959Z,63.14
2019-06-15T21:06:22.100Z,63.22
2019-06-15T21:08:57.583Z,63.36
2019-06-15T21:11:30.066Z,63.53
2019-06-15T21:14:07.098Z,63.67
2019-06-15T21:16:41.753Z,63.78
2019-06-15T21:19:12.546Z,63.84
2019-06-15T21:21:43.702Z,63.81
2019-06-15T21:24:17.290Z,63.80
2019-06-15T21:26:51.110Z,63.83
2019-06-15T21:29:20.758Z,63.83
2019-06-15T21:31:50.580Z,63.96
2019-06-15T21:34:23.076Z,63.94
2019-06-15T21:36:56.583Z,64.05
2019-06-15T21:39:27.904Z,64.46
2019-06-15T21:42:07.188Z,64.46
2019-06-15T21:44:38.465Z,64.65
2019-06-15T21:47:17.498Z,64.86
2019-06-15T21:49:46.879Z,65.02
2019-06-15T21:52:18.037Z,65.21
2019-06-15T21:57:37.636Z,65.90
2019-06-15T22:00:12.377Z,65.91
2019-06-15T22:02:46.930Z,66.44
2019-06-15T22:05:21.181Z,66.44
2019-06-15T22:07:50.401Z,66.79
2019-06-15T22:10:22.867Z,66.79
2019-06-15T22:12:58.040Z,67.12
2019-06-15T22:15:33.654Z,67.34
2019-06-15T22:18:02.374Z,67.84
2019-06-15T22:20:47.102Z,67.84
2019-06-15T22:23:19.198Z,67.77
2019-06-15T22:25:50.492Z,67.89
2019-06-15T22:28:21.184Z,68.05
2019-06-15T22:30:51.893Z,68.29
2019-06-15T22:33:36.206Z,68.45
2019-06-15T22:36:21.267Z,68.75
2019-06-15T22:38:41.053Z,68.75
2019-06-15T22:41:11.787Z,68.89
2019-06-15T22:43:45.999Z,68.89
2019-06-15T22:46:16.431Z,68.80
2019-06-15T22:48:50.087Z,69.31
2019-06-15T22:51:27.303Z,69.31
2019-06-15T22:53:56.604Z,69.38
2019-06-15T22:56:28.544Z,69.46
2019-06-15T22:58:57.291Z,69.64
2019-06-15T23:01:27.009Z,69.80
2019-06-15T23:03:57.143Z,69.98
2019-06-15T23:06:38.746Z,70.07
2019-06-15T23:09:12.396Z,70.15
2019-06-15T23:11:46.850Z,70.21
2019-06-15T23:14:17.312Z,70.18
2019-06-15T23:16:47.452Z,70.18
2019-06-15T23:19:17.694Z,70.20
2019-06-15T23:21:48.313Z,70.29
2019-06-15T23:24:27.252Z,70.39
2019-06-15T23:26:57.128Z,70.41
2019-06-15T23:29:29.534Z,70.41
2019-06-15T23:32:06.522Z,70.48
2019-06-15T23:34:41.012Z,70.63
2019-06-15T23:37:22.561Z,70.72
2019-06-15T23:40:10.302Z,70.62
2019-06-15T23:42:39.501Z,70.60
2019-06-15T23:45:11.595Z,70.69
2019-06-15T23:47:46.659Z,70.79
2019-06-15T23:50:16.928Z,70.93
2019-06-15T23:52:47.038Z,71.07
2019-06-15T23:55:16.379Z,71.15
2019-06-15T23:57:48.319Z,71.11
